Terminal Aerodrome Forecast
Issued by NWS Miami, FL

Home | Current Version | Previous Version | Text Only | Print | Product List | Glossary On
Versions: 1 2 3 4 5 6 7 8 9 10 11 12 13 14 15 16 17 18 19 20 21 22 23 24 25 26 27 28 29 30
000
FTUS42 KMFL 091128
TAFAPF
TAF
KAPF 091128Z 0912/1012 02009KT P6SM FEW040 OVC060
     FM091300 04016G26KT P6SM VCSH SCT050 BKN120
     FM091900 04013G23KT P6SM SCT060 BKN150
     FM100200 03010KT P6SM SCT060 SCT200=

USA.gov is the U.S. government's official web portal to all federal, state and local government web resources and services.